Terminal Aerodrome Forecast
Issued by NWS Lake Charles, LA

Home | Current Version | Previous Version | Text Only | Print | Product List | Glossary On
Versions: 1 2 3 4 5 6 7 8 9 10 11 12 13 14
811
FTUS44 KLCH 162335
TAFBPT
TAF
KBPT 162335Z 1700/1724 18008KT P6SM FEW030 FEW060 BKN200
     FM170600 17004KT P6SM BKN250
     FM171500 21008KT P6SM SCT030 SCT250=

USA.gov is the U.S. government's official web portal to all federal, state and local government web resources and services.